createdAt,value
2017-06-27T00:00:38.151Z,0
2017-06-27T00:01:38.243Z,0
2017-06-27T00:02:38.242Z,0
2017-06-27T00:03:38.361Z,0
2017-06-27T00:04:38.152Z,0
2017-06-27T00:05:38.246Z,0
2017-06-27T00:06:38.165Z,0
2017-06-27T00:07:38.246Z,0
2017-06-27T00:08:38.169Z,0
2017-06-27T00:09:38.243Z,0
2017-06-27T00:10:38.211Z,0
2017-06-27T00:11:38.162Z,0
2017-06-27T00:12:38.161Z,0
2017-06-27T00:13:38.251Z,0
2017-06-27T00:14:38.159Z,0
2017-06-27T00:15:38.170Z,0
2017-06-27T00:16:38.160Z,0
2017-06-27T00:17:38.160Z,0
2017-06-27T00:18:38.244Z,0
2017-06-27T00:19:38.252Z,0
2017-06-27T00:20:38.263Z,0
2017-06-27T00:21:38.254Z,0
2017-06-27T00:22:38.225Z,0
2017-06-27T00:23:38.247Z,0
2017-06-27T00:24:38.261Z,0
2017-06-27T00:25:38.257Z,0
2017-06-27T00:26:38.165Z,0
2017-06-27T00:27:38.257Z,0
2017-06-27T00:28:38.173Z,0
2017-06-27T00:29:38.216Z,0
2017-06-27T00:30:38.259Z,0
2017-06-27T00:31:38.266Z,0
2017-06-27T00:32:38.202Z,0
2017-06-27T00:33:38.179Z,0
2017-06-27T00:34:38.263Z,0
2017-06-27T00:35:38.199Z,0
2017-06-27T00:36:38.179Z,0
2017-06-27T00:37:38.264Z,0
2017-06-27T00:38:38.206Z,0
2017-06-27T00:39:38.265Z,0
2017-06-27T00:40:38.271Z,0
2017-06-27T00:41:38.267Z,0
2017-06-27T00:42:38.315Z,0
2017-06-27T00:43:38.176Z,0
2017-06-27T00:44:38.172Z,0
2017-06-27T00:45:38.225Z,0
2017-06-27T00:46:38.183Z,0
2017-06-27T00:47:38.180Z,0
2017-06-27T00:48:38.192Z,0
2017-06-27T00:49:38.272Z,0
2017-06-27T00:50:38.189Z,0
2017-06-27T00:51:38.278Z,0
2017-06-27T00:52:38.320Z,0
2017-06-27T00:53:38.272Z,0
2017-06-27T00:54:38.184Z,0
2017-06-27T00:55:38.231Z,0
2017-06-27T00:56:38.274Z,0
2017-06-27T00:57:38.183Z,0
2017-06-27T00:58:38.277Z,0
2017-06-27T00:59:38.314Z,0
2017-06-27T01:00:38.194Z,0
2017-06-27T01:01:38.190Z,0
2017-06-27T01:02:38.233Z,0
2017-06-27T01:03:38.222Z,0
2017-06-27T01:04:38.274Z,0
2017-06-27T01:05:38.277Z,0
2017-06-27T01:06:38.192Z,0
2017-06-27T01:07:38.192Z,0
2017-06-27T01:08:38.195Z,0
2017-06-27T01:09:38.197Z,0
2017-06-27T01:10:38.281Z,0
2017-06-27T01:11:38.240Z,0
2017-06-27T01:12:38.260Z,0
2017-06-27T01:13:38.283Z,0
2017-06-27T01:14:38.198Z,0
2017-06-27T01:15:38.199Z,0
2017-06-27T01:16:38.201Z,0
2017-06-27T01:17:38.201Z,0
2017-06-27T01:18:38.197Z,0
2017-06-27T01:19:38.202Z,0
2017-06-27T01:20:38.204Z,0
2017-06-27T01:21:38.289Z,0
2017-06-27T01:22:38.291Z,0
2017-06-27T01:23:38.200Z,0
2017-06-27T01:24:38.205Z,0
2017-06-27T01:25:38.289Z,0
2017-06-27T01:26:38.270Z,0
2017-06-27T01:27:38.270Z,0
2017-06-27T01:28:38.290Z,0
2017-06-27T01:29:38.205Z,0
2017-06-27T01:30:38.257Z,0
2017-06-27T01:31:38.274Z,0
2017-06-27T01:32:38.210Z,0
2017-06-27T01:33:38.292Z,0
2017-06-27T01:34:38.256Z,0
2017-06-27T01:35:38.201Z,0
2017-06-27T01:36:38.212Z,0
2017-06-27T01:37:38.257Z,0
2017-06-27T01:38:38.205Z,0
2017-06-27T01:39:38.257Z,0
2017-06-27T01:40:38.299Z,0
2017-06-27T01:41:38.294Z,0
2017-06-27T01:42:38.307Z,0
2017-06-27T01:43:38.215Z,0
2017-06-27T01:44:38.303Z,0
2017-06-27T01:45:38.301Z,0
2017-06-27T01:46:38.307Z,0
2017-06-27T01:47:38.260Z,0
2017-06-27T01:48:38.304Z,0
2017-06-27T01:49:38.264Z,0
2017-06-27T01:50:38.357Z,0
2017-06-27T01:51:38.211Z,0
2017-06-27T01:52:38.304Z,0
2017-06-27T01:53:38.304Z,0
2017-06-27T01:54:38.222Z,0
2017-06-27T01:55:38.307Z,0
2017-06-27T01:56:38.311Z,0
2017-06-27T01:57:38.266Z,0
2017-06-27T01:58:38.310Z,0
2017-06-27T01:59:38.284Z,0
2017-06-27T02:00:38.227Z,0
2017-06-27T02:01:38.311Z,0
2017-06-27T02:02:38.289Z,0
2017-06-27T02:03:38.254Z,0
2017-06-27T02:04:38.313Z,0
2017-06-27T02:05:38.253Z,0
2017-06-27T02:06:38.309Z,0
2017-06-27T02:07:38.314Z,0
2017-06-27T02:08:38.232Z,0
2017-06-27T02:09:38.318Z,0
2017-06-27T02:10:38.320Z,0
2017-06-27T02:11:38.308Z,0
2017-06-27T02:12:38.230Z,0
2017-06-27T02:13:38.235Z,0
2017-06-27T02:14:38.318Z,0
2017-06-27T02:15:38.316Z,0
2017-06-27T02:16:38.318Z,0
2017-06-27T02:17:38.366Z,0
2017-06-27T02:18:38.323Z,0
2017-06-27T02:19:38.325Z,0
2017-06-27T02:20:38.316Z,0
2017-06-27T02:21:38.321Z,0
2017-06-27T02:22:38.325Z,0
2017-06-27T02:23:38.323Z,0
2017-06-27T02:24:38.322Z,0
2017-06-27T02:25:38.300Z,0
2017-06-27T02:26:38.325Z,0
2017-06-27T02:27:38.328Z,0
2017-06-27T02:28:38.323Z,0
2017-06-27T02:29:38.318Z,0
2017-06-27T02:30:38.241Z,0
2017-06-27T02:31:38.331Z,0
2017-06-27T02:32:38.327Z,0
2017-06-27T02:33:38.330Z,0
2017-06-27T02:34:38.238Z,0
2017-06-27T02:35:38.289Z,0
2017-06-27T02:36:38.249Z,0
2017-06-27T02:37:38.330Z,0
2017-06-27T02:38:38.286Z,0
2017-06-27T02:39:38.330Z,0
2017-06-27T02:40:38.294Z,0
2017-06-27T02:41:38.274Z,0
2017-06-27T02:42:38.329Z,0
2017-06-27T02:43:38.334Z,0
2017-06-27T02:44:38.384Z,0
2017-06-27T02:45:38.337Z,0
2017-06-27T02:46:38.336Z,0
2017-06-27T02:47:38.296Z,0
2017-06-27T02:48:38.250Z,0
2017-06-27T02:49:38.314Z,0
2017-06-27T02:50:38.248Z,0
2017-06-27T02:51:38.251Z,0
2017-06-27T02:52:38.339Z,0
2017-06-27T02:53:38.257Z,0
2017-06-27T02:54:38.300Z,0
2017-06-27T02:55:38.339Z,0
2017-06-27T02:56:38.348Z,0
2017-06-27T02:57:38.346Z,0
2017-06-27T02:58:38.341Z,0
2017-06-27T02:59:38.252Z,0
2017-06-27T03:00:38.265Z,0
2017-06-27T03:01:38.346Z,0
2017-06-27T03:02:38.312Z,0
2017-06-27T03:03:38.319Z,0
2017-06-27T03:04:38.346Z,0
2017-06-27T03:05:38.272Z,0
2017-06-27T03:06:38.304Z,0
2017-06-27T03:07:38.257Z,0
2017-06-27T03:08:38.256Z,0
2017-06-27T03:09:38.311Z,0
2017-06-27T03:10:38.351Z,0
2017-06-27T03:11:38.350Z,0
2017-06-27T03:12:38.353Z,0
2017-06-27T03:13:38.259Z,0
2017-06-27T03:14:38.351Z,0
2017-06-27T03:15:38.466Z,0
2017-06-27T03:16:38.313Z,0
2017-06-27T03:17:38.356Z,0
2017-06-27T03:18:38.268Z,0
2017-06-27T03:19:38.354Z,0
2017-06-27T03:20:38.327Z,0
2017-06-27T03:21:38.271Z,0
2017-06-27T03:22:38.349Z,0
2017-06-27T03:23:38.346Z,0
2017-06-27T03:24:38.271Z,0
2017-06-27T03:25:38.269Z,0
2017-06-27T03:26:38.360Z,0
2017-06-27T03:27:38.265Z,0
2017-06-27T03:28:38.276Z,0
2017-06-27T03:29:38.270Z,0
2017-06-27T03:30:38.272Z,0
2017-06-27T03:31:38.361Z,0
2017-06-27T03:32:38.278Z,0
2017-06-27T03:33:38.273Z,0
2017-06-27T03:34:38.325Z,0
2017-06-27T03:35:38.268Z,0
2017-06-27T03:36:38.356Z,0
2017-06-27T03:37:38.275Z,0
2017-06-27T03:38:38.353Z,0
2017-06-27T03:39:38.339Z,0
2017-06-27T03:40:38.364Z,0
2017-06-27T03:41:38.369Z,0
2017-06-27T03:42:38.359Z,0
2017-06-27T03:43:38.369Z,0
2017-06-27T03:44:38.272Z,0
2017-06-27T03:45:38.370Z,0
2017-06-27T03:46:38.308Z,0
2017-06-27T03:47:38.422Z,0
2017-06-27T03:48:38.370Z,0
2017-06-27T03:49:38.338Z,14
2017-06-27T03:50:38.281Z,17
2017-06-27T03:51:38.360Z,17
2017-06-27T03:52:38.372Z,18
2017-06-27T03:53:38.375Z,19
2017-06-27T03:54:38.288Z,20
2017-06-27T03:55:38.342Z,21
2017-06-27T03:56:38.280Z,22
2017-06-27T03:57:38.288Z,23
2017-06-27T03:58:38.370Z,24
2017-06-27T03:59:38.286Z,25
2017-06-27T04:00:38.382Z,25
2017-06-27T04:01:38.294Z,28
2017-06-27T04:02:38.315Z,30
2017-06-27T04:03:38.374Z,32
2017-06-27T04:04:38.372Z,34
2017-06-27T04:05:38.290Z,36
2017-06-27T04:06:38.295Z,38
2017-06-27T04:07:38.382Z,40
2017-06-27T04:08:38.381Z,42
2017-06-27T04:09:38.381Z,43
2017-06-27T04:10:38.380Z,44
2017-06-27T04:11:38.381Z,44
2017-06-27T04:12:38.287Z,46
2017-06-27T04:13:38.381Z,48
2017-06-27T04:14:38.355Z,49
2017-06-27T04:15:38.293Z,50
2017-06-27T04:16:38.297Z,51
2017-06-27T04:17:38.380Z,52
2017-06-27T04:18:38.362Z,52
2017-06-27T04:19:38.376Z,53
2017-06-27T04:20:38.332Z,54
2017-06-27T04:21:38.301Z,57
2017-06-27T04:22:38.388Z,59
2017-06-27T04:23:38.302Z,61
2017-06-27T04:24:38.307Z,63
2017-06-27T04:25:38.392Z,65
2017-06-27T04:26:38.391Z,67
2017-06-27T04:27:38.392Z,69
2017-06-27T04:28:38.437Z,70
2017-06-27T04:29:38.340Z,74
2017-06-27T04:30:38.389Z,76
2017-06-27T04:31:38.384Z,76
2017-06-27T04:32:38.383Z,77
2017-06-27T04:33:38.384Z,80
2017-06-27T04:34:38.310Z,80
2017-06-27T04:35:38.467Z,82
2017-06-27T04:36:38.312Z,81
2017-06-27T04:37:38.307Z,74
2017-06-27T04:38:38.299Z,82
2017-06-27T04:39:38.425Z,83
2017-06-27T04:40:38.371Z,83
2017-06-27T04:41:38.401Z,83
2017-06-27T04:42:38.305Z,83
2017-06-27T04:43:38.398Z,78
2017-06-27T04:44:38.309Z,78
2017-06-27T04:45:38.400Z,85
2017-06-27T04:46:38.392Z,84
2017-06-27T04:47:38.307Z,83
2017-06-27T04:48:38.314Z,84
2017-06-27T04:50:38.315Z,80
2017-06-27T04:51:38.385Z,86
2017-06-27T04:52:38.413Z,87
2017-06-27T04:53:38.319Z,89
2017-06-27T04:54:38.409Z,90
2017-06-27T04:55:38.407Z,91
2017-06-27T04:56:38.317Z,93
2017-06-27T04:57:38.319Z,100
2017-06-27T04:58:38.405Z,103
2017-06-27T04:59:38.313Z,106
2017-06-27T05:00:38.320Z,110
2017-06-27T05:01:38.317Z,115
2017-06-27T05:02:38.320Z,120
2017-06-27T05:03:38.407Z,123
2017-06-27T05:04:38.414Z,123
2017-06-27T05:05:38.382Z,125
2017-06-27T05:06:38.415Z,126
2017-06-27T05:07:38.409Z,118
2017-06-27T05:08:38.327Z,115
2017-06-27T05:09:38.331Z,127
2017-06-27T05:10:38.403Z,128
2017-06-27T05:11:38.356Z,131
2017-06-27T05:12:38.424Z,133
2017-06-27T05:13:38.402Z,127
2017-06-27T05:14:38.415Z,140
2017-06-27T05:15:38.320Z,146
2017-06-27T05:16:38.465Z,150
2017-06-27T05:17:38.324Z,154
2017-06-27T05:18:38.418Z,158
2017-06-27T05:19:38.332Z,160
2017-06-27T05:20:38.327Z,160
2017-06-27T05:21:38.361Z,162
2017-06-27T05:22:38.422Z,165
2017-06-27T05:23:38.431Z,166
2017-06-27T05:24:38.417Z,164
2017-06-27T05:25:38.425Z,163
2017-06-27T05:26:38.424Z,162
2017-06-27T05:27:38.421Z,163
2017-06-27T05:28:38.425Z,163
2017-06-27T05:29:38.423Z,163
2017-06-27T05:30:38.426Z,165
2017-06-27T05:31:38.334Z,166
2017-06-27T05:32:38.398Z,168
2017-06-27T05:33:38.394Z,170
2017-06-27T05:34:38.427Z,171
2017-06-27T05:35:38.343Z,173
2017-06-27T05:36:38.423Z,174
2017-06-27T05:37:38.369Z,174
2017-06-27T05:38:38.421Z,174
2017-06-27T05:39:38.339Z,174
2017-06-27T05:40:38.344Z,174
2017-06-27T05:41:38.430Z,175
2017-06-27T05:42:38.343Z,176
2017-06-27T05:43:38.340Z,178
2017-06-27T05:44:38.436Z,180
2017-06-27T05:45:38.424Z,180
2017-06-27T05:46:38.431Z,181
2017-06-27T05:47:38.423Z,181
2017-06-27T05:48:38.436Z,181
2017-06-27T05:49:38.348Z,178
2017-06-27T05:50:38.346Z,178
2017-06-27T05:51:38.429Z,177
2017-06-27T05:52:38.436Z,177
2017-06-27T05:53:38.347Z,175
2017-06-27T05:54:38.355Z,173
2017-06-27T05:55:38.377Z,171
2017-06-27T05:56:38.435Z,171
2017-06-27T05:57:38.440Z,173
2017-06-27T05:58:38.437Z,175
2017-06-27T05:59:38.355Z,178
2017-06-27T06:00:38.360Z,179
2017-06-27T06:01:38.442Z,182
2017-06-27T06:02:38.443Z,185
2017-06-27T06:03:38.447Z,187
2017-06-27T06:04:38.353Z,187
2017-06-27T06:05:38.458Z,187
2017-06-27T06:06:38.492Z,188
2017-06-27T06:07:38.445Z,187
2017-06-27T06:08:38.363Z,189
2017-06-27T06:09:38.421Z,190
2017-06-27T06:10:38.358Z,191
2017-06-27T06:11:38.449Z,192
2017-06-27T06:12:38.356Z,194
2017-06-27T06:13:38.406Z,195
2017-06-27T06:14:38.484Z,198
2017-06-27T06:15:38.449Z,199
2017-06-27T06:16:38.455Z,202
2017-06-27T06:17:38.369Z,204
2017-06-27T06:18:38.450Z,206
2017-06-27T06:19:38.441Z,207
2017-06-27T06:20:38.502Z,206
2017-06-27T06:21:38.448Z,205
2017-06-27T06:22:38.455Z,209
2017-06-27T06:23:38.453Z,213
2017-06-27T06:24:38.447Z,215
2017-06-27T06:25:38.453Z,215
2017-06-27T06:26:38.364Z,214
2017-06-27T06:27:38.456Z,215
2017-06-27T06:28:38.477Z,220
2017-06-27T06:29:38.456Z,222
2017-06-27T06:30:38.445Z,224
2017-06-27T06:31:38.404Z,226
2017-06-27T06:32:38.457Z,229
2017-06-27T06:33:38.433Z,229
2017-06-27T06:34:38.460Z,234
2017-06-27T06:35:38.449Z,242
2017-06-27T06:36:38.463Z,247
2017-06-27T06:37:38.462Z,252
2017-06-27T06:38:38.464Z,258
2017-06-27T06:39:38.459Z,259
2017-06-27T06:40:38.373Z,265
2017-06-27T06:41:38.367Z,274
2017-06-27T06:42:38.455Z,277
2017-06-27T06:43:38.441Z,279
2017-06-27T06:44:38.452Z,281
2017-06-27T06:45:38.463Z,277
2017-06-27T06:46:38.381Z,285
2017-06-27T06:47:38.388Z,287
2017-06-27T06:48:38.472Z,286
2017-06-27T06:49:38.470Z,287
2017-06-27T06:50:38.381Z,287
2017-06-27T06:51:38.379Z,282
2017-06-27T06:52:38.471Z,283
2017-06-27T06:53:38.445Z,288
2017-06-27T06:54:38.381Z,291
2017-06-27T06:55:38.388Z,295
2017-06-27T06:56:38.391Z,298
2017-06-27T06:57:38.551Z,296
2017-06-27T06:58:38.492Z,298
2017-06-27T06:59:38.397Z,305
2017-06-27T07:00:38.381Z,306
2017-06-27T07:01:38.479Z,310
2017-06-27T07:02:38.381Z,312
2017-06-27T07:03:38.392Z,312
2017-06-27T07:04:38.454Z,313
2017-06-27T07:05:38.478Z,317
2017-06-27T07:06:38.500Z,319
2017-06-27T07:07:38.483Z,317
2017-06-27T07:08:38.484Z,321
2017-06-27T07:09:38.453Z,318
2017-06-27T07:10:38.480Z,321
2017-06-27T07:11:38.394Z,321
2017-06-27T07:12:38.477Z,320
2017-06-27T07:13:38.474Z,320
2017-06-27T07:14:38.399Z,320
2017-06-27T07:15:38.482Z,324
2017-06-27T07:16:38.401Z,326
2017-06-27T07:17:38.485Z,331
2017-06-27T07:18:38.476Z,335
2017-06-27T07:19:38.395Z,343
2017-06-27T07:20:38.395Z,348
2017-06-27T07:21:38.402Z,353
2017-06-27T07:22:38.404Z,363
2017-06-27T07:23:38.488Z,366
2017-06-27T07:24:38.460Z,372
2017-06-27T07:25:38.490Z,377
2017-06-27T07:26:38.485Z,384
2017-06-27T07:27:38.429Z,378
2017-06-27T07:28:38.399Z,384
2017-06-27T07:29:38.490Z,390
2017-06-27T07:30:38.493Z,399
2017-06-27T07:31:38.496Z,396
2017-06-27T07:32:38.492Z,395
2017-06-27T07:33:38.410Z,385
2017-06-27T07:34:38.485Z,388
2017-06-27T07:35:38.407Z,394
2017-06-27T07:36:38.469Z,396
2017-06-27T07:37:38.517Z,394
2017-06-27T07:38:38.485Z,396
2017-06-27T07:39:38.403Z,393
2017-06-27T07:40:38.491Z,399
2017-06-27T07:41:38.482Z,398
2017-06-27T07:42:38.441Z,402
2017-06-27T07:43:38.501Z,401
2017-06-27T07:44:38.410Z,402
2017-06-27T07:45:38.493Z,393
2017-06-27T07:46:38.416Z,393
2017-06-27T07:47:38.417Z,398
2017-06-27T07:48:38.487Z,400
2017-06-27T07:49:38.503Z,401
2017-06-27T07:50:38.502Z,400
2017-06-27T07:51:38.417Z,394
2017-06-27T07:52:38.420Z,396
2017-06-27T07:53:38.500Z,397
2017-06-27T07:54:38.491Z,395
2017-06-27T07:55:38.496Z,396
2017-06-27T07:56:38.421Z,401
2017-06-27T07:57:38.507Z,410
2017-06-27T07:58:38.507Z,407
2017-06-27T07:59:38.507Z,414
2017-06-27T08:00:38.511Z,416
2017-06-27T08:01:38.417Z,421
2017-06-27T08:02:38.503Z,423
2017-06-27T08:03:38.426Z,428
2017-06-27T08:04:38.505Z,424
2017-06-27T08:05:38.421Z,432
2017-06-27T08:06:38.504Z,437
2017-06-27T08:07:38.487Z,436
2017-06-27T08:08:38.426Z,444
2017-06-27T08:09:38.514Z,445
2017-06-27T08:10:38.502Z,444
2017-06-27T08:11:38.505Z,469
2017-06-27T08:12:38.431Z,474
2017-06-27T08:13:38.514Z,484
2017-06-27T08:14:38.525Z,489
2017-06-27T08:15:38.514Z,484
2017-06-27T08:16:38.425Z,480
2017-06-27T08:17:38.491Z,495
2017-06-27T08:18:38.523Z,509
2017-06-27T08:19:38.439Z,508
2017-06-27T08:20:38.514Z,499
2017-06-27T08:21:38.520Z,501
2017-06-27T08:22:38.492Z,476
2017-06-27T08:23:38.522Z,483
2017-06-27T08:24:38.511Z,470
2017-06-27T08:25:38.521Z,456
2017-06-27T08:26:38.522Z,460
2017-06-27T08:27:38.515Z,476
2017-06-27T08:28:38.526Z,506
2017-06-27T08:29:38.509Z,522
2017-06-27T08:30:38.529Z,531
2017-06-27T08:31:38.519Z,533
2017-06-27T08:32:38.526Z,539
2017-06-27T08:33:38.525Z,543
2017-06-27T08:34:38.528Z,541
2017-06-27T08:35:38.496Z,527
2017-06-27T08:36:38.530Z,527
2017-06-27T08:37:38.531Z,532
2017-06-27T08:38:38.531Z,542
2017-06-27T08:39:38.446Z,519
2017-06-27T08:40:38.469Z,500
2017-06-27T08:41:38.524Z,484
2017-06-27T08:42:38.527Z,480
2017-06-27T08:43:38.452Z,471
2017-06-27T08:44:38.440Z,465
2017-06-27T08:45:38.534Z,459
2017-06-27T08:46:38.526Z,450
2017-06-27T08:47:38.505Z,442
2017-06-27T08:48:38.453Z,442
2017-06-27T08:49:38.452Z,442
2017-06-27T08:50:38.523Z,443
2017-06-27T08:51:38.532Z,443
2017-06-27T08:52:38.511Z,451
2017-06-27T08:53:38.457Z,453
2017-06-27T08:54:38.541Z,454
2017-06-27T08:55:38.453Z,457
2017-06-27T08:56:38.543Z,463
2017-06-27T08:57:38.542Z,465
2017-06-27T08:58:38.450Z,466
2017-06-27T08:59:38.533Z,468
2017-06-27T09:00:38.540Z,478
2017-06-27T09:01:38.525Z,488
2017-06-27T09:02:38.535Z,501
2017-06-27T09:03:38.542Z,506
2017-06-27T09:04:38.457Z,505
2017-06-27T09:05:38.548Z,507
2017-06-27T09:06:38.517Z,492
2017-06-27T09:07:38.542Z,492
2017-06-27T09:08:38.590Z,476
2017-06-27T09:09:38.455Z,482
2017-06-27T09:10:38.547Z,503
2017-06-27T09:11:38.547Z,517
2017-06-27T09:12:38.553Z,529
2017-06-27T09:13:38.458Z,564
2017-06-27T09:14:38.521Z,587
2017-06-27T09:15:38.541Z,613
2017-06-27T09:16:38.581Z,623
2017-06-27T09:17:38.544Z,638
2017-06-27T09:18:38.490Z,648
2017-06-27T09:19:38.549Z,623
2017-06-27T09:20:38.553Z,631
2017-06-27T09:21:38.469Z,671
2017-06-27T09:22:38.492Z,688
2017-06-27T09:23:38.465Z,692
2017-06-27T09:24:38.552Z,696
2017-06-27T09:25:38.586Z,699
2017-06-27T09:26:38.556Z,708
2017-06-27T09:27:38.558Z,730
2017-06-27T09:28:38.563Z,722
2017-06-27T09:29:38.562Z,698
2017-06-27T09:30:38.475Z,728
2017-06-27T09:31:38.560Z,735
2017-06-27T09:32:38.475Z,710
2017-06-27T09:33:38.558Z,693
2017-06-27T09:34:38.554Z,675
2017-06-27T09:35:38.561Z,687
2017-06-27T09:36:38.566Z,710
2017-06-27T09:37:38.558Z,678
2017-06-27T09:38:38.548Z,678
2017-06-27T09:39:38.553Z,674
2017-06-27T09:40:38.471Z,644
2017-06-27T09:41:38.482Z,607
2017-06-27T09:42:38.537Z,577
2017-06-27T09:43:38.572Z,565
2017-06-27T09:44:38.477Z,562
2017-06-27T09:45:38.564Z,571
2017-06-27T09:46:38.475Z,555
2017-06-27T09:47:38.481Z,562
2017-06-27T09:48:38.539Z,571
2017-06-27T09:49:38.477Z,558
2017-06-27T09:50:38.544Z,543
2017-06-27T09:51:38.543Z,532
2017-06-27T09:52:38.573Z,543
2017-06-27T09:53:38.569Z,547
2017-06-27T09:54:38.559Z,546
2017-06-27T09:55:38.572Z,543
2017-06-27T09:56:38.485Z,535
2017-06-27T09:57:38.573Z,536
2017-06-27T09:58:38.569Z,540
2017-06-27T09:59:38.480Z,546
2017-06-27T10:00:38.575Z,556
2017-06-27T10:01:38.578Z,561
2017-06-27T10:02:38.490Z,567
2017-06-27T10:03:38.577Z,569
2017-06-27T10:04:38.586Z,573
2017-06-27T10:05:38.581Z,574
2017-06-27T10:06:38.572Z,573
2017-06-27T10:07:38.583Z,565
2017-06-27T10:08:38.549Z,555
2017-06-27T10:09:38.552Z,552
2017-06-27T10:10:38.585Z,544
2017-06-27T10:11:38.552Z,540
2017-06-27T10:12:38.554Z,543
2017-06-27T10:13:38.566Z,543
2017-06-27T10:14:38.573Z,545
2017-06-27T10:15:38.584Z,543
2017-06-27T10:16:38.577Z,545
2017-06-27T10:17:38.586Z,555
2017-06-27T10:18:38.586Z,567
2017-06-27T10:19:38.579Z,568
2017-06-27T10:20:38.578Z,583
2017-06-27T10:21:38.587Z,624
2017-06-27T10:22:38.579Z,622
2017-06-27T10:23:38.496Z,645
2017-06-27T10:24:38.570Z,628
2017-06-27T10:25:38.497Z,615
2017-06-27T10:26:38.591Z,629
2017-06-27T10:27:38.587Z,651
2017-06-27T10:28:38.503Z,630
2017-06-27T10:29:38.575Z,613
2017-06-27T10:30:38.594Z,619
2017-06-27T10:31:38.595Z,620
2017-06-27T10:32:38.504Z,621
2017-06-27T10:33:38.583Z,632
2017-06-27T10:34:38.510Z,699
2017-06-27T10:35:38.566Z,730
2017-06-27T10:36:38.507Z,734
2017-06-27T10:37:38.599Z,704
2017-06-27T10:38:38.598Z,691
2017-06-27T10:39:38.592Z,709
2017-06-27T10:40:38.595Z,707
2017-06-27T10:41:38.584Z,701
2017-06-27T10:42:38.511Z,726
2017-06-27T10:43:38.509Z,726
2017-06-27T10:44:38.597Z,724
2017-06-27T10:45:38.514Z,726
2017-06-27T10:46:38.503Z,723
2017-06-27T10:47:38.589Z,725
2017-06-27T10:48:38.601Z,736
2017-06-27T10:49:38.595Z,724
2017-06-27T10:50:38.509Z,717
2017-06-27T10:51:38.518Z,715
2017-06-27T10:52:38.601Z,698
2017-06-27T10:53:38.603Z,701
2017-06-27T10:54:38.604Z,699
2017-06-27T10:55:38.600Z,759
2017-06-27T10:56:38.514Z,765
2017-06-27T10:57:38.519Z,786
2017-06-27T10:58:38.598Z,766
2017-06-27T10:59:38.516Z,770
2017-06-27T11:00:38.523Z,763
2017-06-27T11:01:38.608Z,729
2017-06-27T11:02:38.530Z,748
2017-06-27T11:03:38.518Z,736
2017-06-27T11:04:38.610Z,737
2017-06-27T11:05:38.611Z,754
2017-06-27T11:06:38.549Z,762
2017-06-27T11:07:38.601Z,756
2017-06-27T11:08:38.516Z,750
2017-06-27T11:09:38.608Z,755
2017-06-27T11:10:38.613Z,740
2017-06-27T11:11:38.615Z,684
2017-06-27T11:12:38.617Z,624
2017-06-27T11:13:38.520Z,590
2017-06-27T11:14:38.528Z,569
2017-06-27T11:15:38.524Z,570
2017-06-27T11:16:38.609Z,592
2017-06-27T11:17:38.613Z,606
2017-06-27T11:18:38.618Z,611
2017-06-27T11:19:38.608Z,620
2017-06-27T11:20:38.562Z,613
2017-06-27T11:21:38.622Z,611
2017-06-27T11:22:38.537Z,625
2017-06-27T11:23:38.591Z,622
2017-06-27T11:24:38.612Z,609
2017-06-27T11:25:38.529Z,599
2017-06-27T11:26:38.614Z,610
2017-06-27T11:27:38.533Z,608
2017-06-27T11:28:38.628Z,642
2017-06-27T11:29:38.534Z,629
2017-06-27T11:30:38.561Z,645
2017-06-27T11:31:38.615Z,794
2017-06-27T11:32:38.630Z,820
2017-06-27T11:33:38.622Z,725
2017-06-27T11:34:38.623Z,678
2017-06-27T11:35:38.541Z,707
2017-06-27T11:36:38.541Z,792
2017-06-27T11:37:38.621Z,909
2017-06-27T11:38:38.616Z,845
2017-06-27T11:39:38.613Z,811
2017-06-27T11:40:38.619Z,784
2017-06-27T11:41:38.626Z,772
2017-06-27T11:42:38.572Z,876
2017-06-27T11:43:38.553Z,875
2017-06-27T11:44:38.549Z,850
2017-06-27T11:45:38.551Z,848
2017-06-27T11:46:38.633Z,857
2017-06-27T11:47:38.603Z,948
2017-06-27T11:48:38.549Z,992
2017-06-27T11:49:38.644Z,944
2017-06-27T11:50:38.638Z,917
2017-06-27T11:51:38.622Z,825
2017-06-27T11:52:38.637Z,777
2017-06-27T11:53:38.638Z,813
2017-06-27T11:54:38.628Z,956
2017-06-27T11:55:38.557Z,813
2017-06-27T11:56:38.663Z,899
2017-06-27T11:57:38.640Z,909
2017-06-27T11:58:38.644Z,788
2017-06-27T11:59:38.556Z,907
2017-06-27T12:00:38.643Z,802
2017-06-27T12:01:38.635Z,758
2017-06-27T12:02:38.648Z,737
2017-06-27T12:03:38.629Z,694
2017-06-27T12:04:38.635Z,681
2017-06-27T12:05:38.646Z,666
2017-06-27T12:06:38.647Z,617
2017-06-27T12:07:38.555Z,576
2017-06-27T12:08:38.650Z,553
2017-06-27T12:09:38.632Z,546
2017-06-27T12:10:38.679Z,548
2017-06-27T12:11:38.649Z,550
2017-06-27T12:12:38.639Z,551
2017-06-27T12:13:38.650Z,554
2017-06-27T12:14:38.649Z,556
2017-06-27T12:15:38.654Z,559
2017-06-27T12:16:38.647Z,557
2017-06-27T12:17:38.647Z,558
2017-06-27T12:18:38.626Z,553
2017-06-27T12:19:38.701Z,559
2017-06-27T12:20:38.625Z,565
2017-06-27T12:21:38.642Z,566
2017-06-27T12:22:38.643Z,569
2017-06-27T12:23:38.630Z,576
2017-06-27T12:24:38.570Z,594
2017-06-27T12:25:38.561Z,614
2017-06-27T12:26:38.565Z,639
2017-06-27T12:27:38.657Z,649
2017-06-27T12:28:38.660Z,670
2017-06-27T12:29:38.658Z,675
2017-06-27T12:30:38.658Z,687
2017-06-27T12:31:38.564Z,709
2017-06-27T12:32:38.658Z,716
2017-06-27T12:33:38.661Z,707
2017-06-27T12:34:38.651Z,739
2017-06-27T12:35:38.662Z,756
2017-06-27T12:36:38.646Z,763
2017-06-27T12:37:38.658Z,729
2017-06-27T12:38:38.696Z,691
2017-06-27T12:39:38.649Z,669
2017-06-27T12:40:38.662Z,671
2017-06-27T12:41:38.626Z,690
2017-06-27T12:42:38.655Z,840
2017-06-27T12:43:38.651Z,673
2017-06-27T12:44:38.653Z,631
2017-06-27T12:45:38.578Z,627
2017-06-27T12:46:38.686Z,651
2017-06-27T12:47:38.666Z,627
2017-06-27T12:48:38.578Z,630
2017-06-27T12:49:38.584Z,602
2017-06-27T12:50:38.670Z,551
2017-06-27T12:51:38.583Z,520
2017-06-27T12:52:38.670Z,499
2017-06-27T12:53:38.675Z,479
2017-06-27T12:54:38.663Z,469
2017-06-27T12:55:38.671Z,469
2017-06-27T12:56:38.591Z,470
2017-06-27T12:57:38.670Z,480
2017-06-27T12:58:38.586Z,500
2017-06-27T12:59:38.582Z,515
2017-06-27T13:00:38.629Z,626
2017-06-27T13:01:38.678Z,590
2017-06-27T13:02:38.675Z,587
2017-06-27T13:03:38.680Z,575
2017-06-27T13:04:38.699Z,588
2017-06-27T13:05:38.710Z,594
2017-06-27T13:06:38.671Z,612
2017-06-27T13:07:38.591Z,607
2017-06-27T13:08:38.682Z,610
2017-06-27T13:09:38.684Z,614
2017-06-27T13:10:38.588Z,629
2017-06-27T13:11:38.586Z,660
2017-06-27T13:12:38.590Z,987
2017-06-27T13:13:38.676Z,1053
2017-06-27T13:14:38.600Z,823
2017-06-27T13:15:38.691Z,725
2017-06-27T13:16:38.687Z,679
2017-06-27T13:17:38.682Z,1156
2017-06-27T13:18:38.687Z,642
2017-06-27T13:19:38.690Z,694
2017-06-27T13:20:38.605Z,582
2017-06-27T13:21:38.689Z,576
2017-06-27T13:22:38.694Z,575
2017-06-27T13:23:38.603Z,551
2017-06-27T13:24:38.689Z,566
2017-06-27T13:25:38.689Z,541
2017-06-27T13:26:38.690Z,546
2017-06-27T13:27:38.629Z,530
2017-06-27T13:28:38.611Z,531
2017-06-27T13:29:38.690Z,533
2017-06-27T13:30:38.693Z,554
2017-06-27T13:31:38.732Z,524
2017-06-27T13:32:38.692Z,519
2017-06-27T13:33:38.613Z,511
2017-06-27T13:34:38.694Z,509
2017-06-27T13:35:38.691Z,507
2017-06-27T13:36:38.692Z,500
2017-06-27T13:37:38.685Z,501
2017-06-27T13:38:38.677Z,507
2017-06-27T13:39:38.695Z,512
2017-06-27T13:40:38.670Z,522
2017-06-27T13:41:38.707Z,538
2017-06-27T13:42:38.704Z,548
2017-06-27T13:43:38.665Z,585
2017-06-27T13:44:38.690Z,593
2017-06-27T13:45:38.703Z,597
2017-06-27T13:46:38.690Z,583
2017-06-27T13:47:38.603Z,586
2017-06-27T13:48:38.642Z,574
2017-06-27T13:49:38.641Z,593
2017-06-27T13:50:38.619Z,719
2017-06-27T13:51:38.618Z,633
2017-06-27T13:52:38.610Z,614
2017-06-27T13:53:38.710Z,617
2017-06-27T13:54:38.622Z,597
2017-06-27T13:55:38.700Z,529
2017-06-27T13:56:38.708Z,511
2017-06-27T13:57:38.653Z,498
2017-06-27T13:58:38.619Z,485
2017-06-27T13:59:38.618Z,472
2017-06-27T14:00:38.625Z,450
2017-06-27T14:01:38.703Z,439
2017-06-27T14:02:38.736Z,431
2017-06-27T14:03:38.710Z,424
2017-06-27T14:04:38.619Z,410
2017-06-27T14:05:38.619Z,396